sensor_id;sensor_type;location;lat;lon;timestamp;temperature;humidity
21805;DHT22;11064;47.102;15.452;2022-10-17T04:03:34;9.90;99.90
21805;DHT22;11064;47.102;15.452;2022-10-17T04:06:01;10.00;99.90
21805;DHT22;11064;47.102;15.452;2022-10-17T04:08:28;10.00;99.90
21805;DHT22;11064;47.102;15.452;2022-10-17T04:10:58;10.00;99.90
21805;DHT22;11064;47.102;15.452;2022-10-17T04:13:24;10.10;99.90
21805;DHT22;11064;47.102;15.452;2022-10-17T04:15:58;10.10;99.90
21805;DHT22;11064;47.102;15.452;2022-10-17T04:18:25;10.10;99.90
21805;DHT22;11064;47.102;15.452;2022-10-17T04:20:51;10.10;99.90
21805;DHT22;11064;47.102;15.452;2022-10-17T04:23:17;10.10;99.90
21805;DHT22;11064;47.102;15.452;2022-10-17T04:25:43;10.10;99.90
21805;DHT22;11064;47.102;15.452;2022-10-17T04:28:09;10.00;99.90
21805;DHT22;11064;47.102;15.452;2022-10-17T04:30:34;10.00;99.90
21805;DHT22;11064;47.102;15.452;2022-10-17T04:33:00;10.00;99.90
21805;DHT22;11064;47.102;15.452;2022-10-17T04:35:26;10.00;99.90
21805;DHT22;11064;47.102;15.452;2022-10-17T04:37:52;10.00;99.90
21805;DHT22;11064;47.102;15.452;2022-10-17T04:40:18;10.00;99.90
21805;DHT22;11064;47.102;15.452;2022-10-17T04:42:45;10.00;99.90
21805;DHT22;11064;47.102;15.452;2022-10-17T04:45:11;10.00;99.90
21805;DHT22;11064;47.102;15.452;2022-10-17T04:47:36;10.00;99.90
21805;DHT22;11064;47.102;15.452;2022-10-17T04:50:03;9.90;99.90
21805;DHT22;11064;47.102;15.452;2022-10-17T04:52:29;9.90;99.90
21805;DHT22;11064;47.102;15.452;2022-10-17T04:54:54;9.90;99.90
21805;DHT22;11064;47.102;15.452;2022-10-17T04:57:20;9.90;99.90
21805;DHT22;11064;47.102;15.452;2022-10-17T04:59:46;10.00;99.90
21805;DHT22;11064;47.102;15.452;2022-10-17T05:02:12;10.00;99.90
21805;DHT22;11064;47.102;15.452;2022-10-17T05:04:37;9.90;99.90
21805;DHT22;11064;47.102;15.452;2022-10-17T05:07:03;9.90;99.90
21805;DHT22;11064;47.102;15.452;2022-10-17T05:09:29;9.90;99.90
21805;DHT22;11064;47.102;15.452;2022-10-17T05:11:55;9.90;99.90
21805;DHT22;11064;47.102;15.452;2022-10-17T05:14:21;10.00;99.90
21805;DHT22;11064;47.102;15.452;2022-10-17T05:16:46;9.90;99.90
21805;DHT22;11064;47.102;15.452;2022-10-17T05:19:12;10.00;99.90
21805;DHT22;11064;47.102;15.452;2022-10-17T05:21:38;9.90;99.90
21805;DHT22;11064;47.102;15.452;2022-10-17T05:24:05;9.90;99.90
21805;DHT22;11064;47.102;15.452;2022-10-17T05:26:32;9.90;99.90
21805;DHT22;11064;47.102;15.452;2022-10-17T05:28:59;10.00;99.90
21805;DHT22;11064;47.102;15.452;2022-10-17T05:31:28;10.00;99.90
21805;DHT22;11064;47.102;15.452;2022-10-17T05:33:55;10.10;99.90
21805;DHT22;11064;47.102;15.452;2022-10-17T05:36:24;10.00;99.90
21805;DHT22;11064;47.102;15.452;2022-10-17T05:38:51;10.10;99.90
21805;DHT22;11064;47.102;15.452;2022-10-17T05:41:17;10.10;99.90
21805;DHT22;11064;47.102;15.452;2022-10-17T05:43:43;10.10;99.90
21805;DHT22;11064;47.102;15.452;2022-10-17T05:46:10;10.10;99.90
21805;DHT22;11064;47.102;15.452;2022-10-17T05:48:36;10.10;99.90
21805;DHT22;11064;47.102;15.452;2022-10-17T05:51:07;10.10;99.90
21805;DHT22;11064;47.102;15.452;2022-10-17T05:53:36;10.10;99.90
21805;DHT22;11064;47.102;15.452;2022-10-17T05:56:05;10.20;99.90
21805;DHT22;11064;47.102;15.452;2022-10-17T05:58:33;10.20;99.90
21805;DHT22;11064;47.102;15.452;2022-10-17T06:01:04;10.20;99.90
21805;DHT22;11064;47.102;15.452;2022-10-17T06:03:30;10.20;99.90
21805;DHT22;11064;47.102;15.452;2022-10-17T06:06:05;10.30;99.90
21805;DHT22;11064;47.102;15.452;2022-10-17T06:08:31;10.30;99.90
21805;DHT22;11064;47.102;15.452;2022-10-17T06:10:57;10.30;99.90
21805;DHT22;11064;47.102;15.452;2022-10-17T06:13:23;10.40;99.90
21805;DHT22;11064;47.102;15.452;2022-10-17T06:15:49;10.40;99.90
21805;DHT22;11064;47.102;15.452;2022-10-17T06:18:14;10.40;99.90
21805;DHT22;11064;47.102;15.452;2022-10-17T06:20:40;10.50;99.90
21805;DHT22;11064;47.102;15.452;2022-10-17T06:23:06;10.40;99.90
21805;DHT22;11064;47.102;15.452;2022-10-17T06:25:32;10.50;99.90
21805;DHT22;11064;47.102;15.452;2022-10-17T06:27:58;10.50;99.90
21805;DHT22;11064;47.102;15.452;2022-10-17T06:30:25;10.60;99.90
21805;DHT22;11064;47.102;15.452;2022-10-17T06:32:51;10.60;99.90
21805;DHT22;11064;47.102;15.452;2022-10-17T06:35:18;10.70;99.90
21805;DHT22;11064;47.102;15.452;2022-10-17T06:37:44;10.70;99.90
21805;DHT22;11064;47.102;15.452;2022-10-17T06:40:11;10.80;99.90
21805;DHT22;11064;47.102;15.452;2022-10-17T06:42:37;10.80;99.90
21805;DHT22;11064;47.102;15.452;2022-10-17T06:45:04;10.90;99.90
21805;DHT22;11064;47.102;15.452;2022-10-17T06:47:30;10.90;99.90
21805;DHT22;11064;47.102;15.452;2022-10-17T06:49:56;10.90;99.90
21805;DHT22;11064;47.102;15.452;2022-10-17T06:52:22;11.00;99.90
21805;DHT22;11064;47.102;15.452;2022-10-17T06:54:48;11.10;99.90
21805;DHT22;11064;47.102;15.452;2022-10-17T06:57:16;11.10;99.90
21805;DHT22;11064;47.102;15.452;2022-10-17T06:59:42;11.10;99.90
21805;DHT22;11064;47.102;15.452;2022-10-17T07:02:11;11.10;99.90
21805;DHT22;11064;47.102;15.452;2022-10-17T07:04:36;11.20;99.90
21805;DHT22;11064;47.102;15.452;2022-10-17T07:07:03;11.20;99.90
21805;DHT22;11064;47.102;15.452;2022-10-17T07:09:29;11.30;99.90
21805;DHT22;11064;47.102;15.452;2022-10-17T07:11:56;11.40;99.90
21805;DHT22;11064;47.102;15.452;2022-10-17T07:14:21;11.40;99.90
21805;DHT22;11064;47.102;15.452;2022-10-17T07:16:48;11.40;99.90
21805;DHT22;11064;47.102;15.452;2022-10-17T07:19:14;11.50;99.90
21805;DHT22;11064;47.102;15.452;2022-10-17T07:21:40;11.50;99.90
21805;DHT22;11064;47.102;15.452;2022-10-17T07:24:05;11.60;99.90
21805;DHT22;11064;47.102;15.452;2022-10-17T07:26:32;11.70;99.90
21805;DHT22;11064;47.102;15.452;2022-10-17T07:28:58;11.70;99.90
21805;DHT22;11064;47.102;15.452;2022-10-17T07:31:24;11.80;99.90
21805;DHT22;11064;47.102;15.452;2022-10-17T07:33:50;11.80;99.90
21805;DHT22;11064;47.102;15.452;2022-10-17T07:36:16;11.90;99.90
21805;DHT22;11064;47.102;15.452;2022-10-17T07:38:42;12.00;99.90
21805;DHT22;11064;47.102;15.452;2022-10-17T07:41:10;12.10;99.90
21805;DHT22;11064;47.102;15.452;2022-10-17T07:43:36;12.10;99.90
21805;DHT22;11064;47.102;15.452;2022-10-17T07:46:02;12.20;99.90
21805;DHT22;11064;47.102;15.452;2022-10-17T07:48:30;12.30;99.90
21805;DHT22;11064;47.102;15.452;2022-10-17T07:50:55;12.30;99.90
21805;DHT22;11064;47.102;15.452;2022-10-17T07:53:21;12.40;99.90
21805;DHT22;11064;47.102;15.452;2022-10-17T07:55:47;12.50;99.90
21805;DHT22;11064;47.102;15.452;2022-10-17T07:58:14;12.60;99.90
21805;DHT22;11064;47.102;15.452;2022-10-17T08:00:40;12.70;99.90
21805;DHT22;11064;47.102;15.452;2022-10-17T08:03:06;12.70;99.90
21805;DHT22;11064;47.102;15.452;2022-10-17T08:05:32;12.80;99.90
21805;DHT22;11064;47.102;15.452;2022-10-17T08:07:58;12.90;99.90
21805;DHT22;11064;47.102;15.452;2022-10-17T08:10:24;13.00;99.90
21805;DHT22;11064;47.102;15.452;2022-10-17T08:12:55;13.20;99.90
21805;DHT22;11064;47.102;15.452;2022-10-17T08:15:22;13.20;99.90
21805;DHT22;11064;47.102;15.452;2022-10-17T08:17:48;13.40;99.90
21805;DHT22;11064;47.102;15.452;2022-10-17T08:20:14;13.40;99.90
21805;DHT22;11064;47.102;15.452;2022-10-17T08:22:40;13.60;99.90
21805;DHT22;11064;47.102;15.452;2022-10-17T08:25:07;13.70;99.90
21805;DHT22;11064;47.102;15.452;2022-10-17T08:27:33;13.80;99.90
21805;DHT22;11064;47.102;15.452;2022-10-17T08:29:59;13.90;99.90
21805;DHT22;11064;47.102;15.452;2022-10-17T08:32:26;14.00;99.90
21805;DHT22;11064;47.102;15.452;2022-10-17T08:34:53;14.10;99.90
21805;DHT22;11064;47.102;15.452;2022-10-17T08:37:21;14.30;99.90
21805;DHT22;11064;47.102;15.452;2022-10-17T08:39:47;14.40;99.90
21805;DHT22;11064;47.102;15.452;2022-10-17T08:47:59;14.70;99.90
21805;DHT22;11064;47.102;15.452;2022-10-17T08:50:53;14.80;99.90
21805;DHT22;11064;47.102;15.452;2022-10-17T08:56:03;15.10;99.90
21805;DHT22;11064;47.102;15.452;2022-10-17T08:58:33;15.30;99.90
21805;DHT22;11064;47.102;15.452;2022-10-17T09:06:34;15.70;99.90
21805;DHT22;11064;47.102;15.452;2022-10-17T09:09:14;15.90;99.90
21805;DHT22;11064;47.102;15.452;2022-10-17T09:20:09;16.40;99.90
21805;DHT22;11064;47.102;15.452;2022-10-17T09:22:43;16.50;99.90
21805;DHT22;11064;47.102;15.452;2022-10-17T09:25:15;16.50;99.90
21805;DHT22;11064;47.102;15.452;2022-10-17T09:27:53;16.60;99.90
21805;DHT22;11064;47.102;15.452;2022-10-17T09:30:43;16.70;99.90
21805;DHT22;11064;47.102;15.452;2022-10-17T09:33:15;16.80;99.90
21805;DHT22;11064;47.102;15.452;2022-10-17T09:35:42;16.70;99.90
21805;DHT22;11064;47.102;15.452;2022-10-17T09:38:19;16.80;99.90
21805;DHT22;11064;47.102;15.452;2022-10-17T09:40:53;16.90;99.90
21805;DHT22;11064;47.102;15.452;2022-10-17T09:43:19;17.00;99.90
21805;DHT22;11064;47.102;15.452;2022-10-17T09:46:06;17.10;99.90
21805;DHT22;11064;47.102;15.452;2022-10-17T09:48:41;17.20;99.90
21805;DHT22;11064;47.102;15.452;2022-10-17T09:51:11;17.30;99.90
21805;DHT22;11064;47.102;15.452;2022-10-17T09:53:40;17.30;99.90
21805;DHT22;11064;47.102;15.452;2022-10-17T09:56:18;17.40;99.90
21805;DHT22;11064;47.102;15.452;2022-10-17T09:58:50;17.50;99.90
21805;DHT22;11064;47.102;15.452;2022-10-17T10:01:24;17.60;99.90
21805;DHT22;11064;47.102;15.452;2022-10-17T10:04:26;17.70;99.90
21805;DHT22;11064;47.102;15.452;2022-10-17T10:07:03;17.80;99.90
21805;DHT22;11064;47.102;15.452;2022-10-17T10:09:31;17.80;99.90
21805;DHT22;11064;47.102;15.452;2022-10-17T10:12:00;17.90;99.90
21805;DHT22;11064;47.102;15.452;2022-10-17T10:14:33;18.00;99.90
21805;DHT22;11064;47.102;15.452;2022-10-17T10:17:01;18.10;99.90
21805;DHT22;11064;47.102;15.452;2022-10-17T10:19:28;18.10;99.90
21805;DHT22;11064;47.102;15.452;2022-10-17T10:22:04;18.10;99.90
21805;DHT22;11064;47.102;15.452;2022-10-17T10:24:31;18.10;99.90
21805;DHT22;11064;47.102;15.452;2022-10-17T10:27:02;18.30;99.90
21805;DHT22;11064;47.102;15.452;2022-10-17T10:29:38;18.30;99.90
21805;DHT22;11064;47.102;15.452;2022-10-17T10:32:21;18.30;99.90
21805;DHT22;11064;47.102;15.452;2022-10-17T10:37:38;18.40;99.90
21805;DHT22;11064;47.102;15.452;2022-10-17T10:40:14;18.40;99.90
21805;DHT22;11064;47.102;15.452;2022-10-17T10:42:46;18.40;99.90
21805;DHT22;11064;47.102;15.452;2022-10-17T10:45:22;18.50;99.90
21805;DHT22;11064;47.102;15.452;2022-10-17T10:48:01;18.60;99.90
21805;DHT22;11064;47.102;15.452;2022-10-17T10:50:42;18.70;99.90
21805;DHT22;11064;47.102;15.452;2022-10-17T10:56:03;18.70;99.90
21805;DHT22;11064;47.102;15.452;2022-10-17T11:01:10;18.70;99.90
21805;DHT22;11064;47.102;15.452;2022-10-17T11:06:42;18.80;99.90
21805;DHT22;11064;47.102;15.452;2022-10-17T11:12:12;18.90;99.90
21805;DHT22;11064;47.102;15.452;2022-10-17T11:14:54;18.90;99.90
21805;DHT22;11064;47.102;15.452;2022-10-17T11:17:39;19.00;99.90
21805;DHT22;11064;47.102;15.452;2022-10-17T11:22:46;19.10;99.90
21805;DHT22;11064;47.102;15.452;2022-10-17T11:27:42;19.00;99.90
21805;DHT22;11064;47.102;15.452;2022-10-17T11:30:12;19.00;99.90
21805;DHT22;11064;47.102;15.452;2022-10-17T11:32:51;19.10;99.90
21805;DHT22;11064;47.102;15.452;2022-10-17T11:35:24;19.10;99.90
21805;DHT22;11064;47.102;15.452;2022-10-17T11:40:44;19.10;99.90
21805;DHT22;11064;47.102;15.452;2022-10-17T11:46:23;19.20;99.90
21805;DHT22;11064;47.102;15.452;2022-10-17T11:49:23;19.30;99.90
21805;DHT22;11064;47.102;15.452;2022-10-17T11:51:58;19.30;99.90
21805;DHT22;11064;47.102;15.452;2022-10-17T11:54:32;19.30;99.90
21805;DHT22;11064;47.102;15.452;2022-10-17T12:02:19;19.20;99.90
21805;DHT22;11064;47.102;15.452;2022-10-17T12:05:27;19.30;99.90
21805;DHT22;11064;47.102;15.452;2022-10-17T12:08:10;19.30;99.90
21805;DHT22;11064;47.102;15.452;2022-10-17T12:15:54;19.10;99.90
21805;DHT22;11064;47.102;15.452;2022-10-17T12:18:24;19.10;99.90
21805;DHT22;11064;47.102;15.452;2022-10-17T12:21:00;19.10;99.90
21805;DHT22;11064;47.102;15.452;2022-10-17T12:23:28;19.20;99.90
21805;DHT22;11064;47.102;15.452;2022-10-17T12:26:02;19.20;99.90
21805;DHT22;11064;47.102;15.452;2022-10-17T12:28:40;19.30;99.90
21805;DHT22;11064;47.102;15.452;2022-10-17T12:33:56;19.40;99.90
21805;DHT22;11064;47.102;15.452;2022-10-17T12:49:20;19.40;99.90
21805;DHT22;11064;47.102;15.452;2022-10-17T12:52:16;19.30;99.90
21805;DHT22;11064;47.102;15.452;2022-10-17T13:00:35;19.30;99.90
21805;DHT22;11064;47.102;15.452;2022-10-17T13:03:14;19.30;99.90
21805;DHT22;11064;47.102;15.452;2022-10-17T13:05:46;19.30;99.90
21805;DHT22;11064;47.102;15.452;2022-10-17T13:08:25;19.30;99.90
21805;DHT22;11064;47.102;15.452;2022-10-17T13:10:53;19.20;99.90
21805;DHT22;11064;47.102;15.452;2022-10-17T13:15:59;19.10;99.90
21805;DHT22;11064;47.102;15.452;2022-10-17T13:18:28;19.00;99.90
21805;DHT22;11064;47.102;15.452;2022-10-17T13:23:28;18.80;99.90
21805;DHT22;11064;47.102;15.452;2022-10-17T13:26:12;18.80;99.90
21805;DHT22;11064;47.102;15.452;2022-10-17T13:28:39;18.70;99.90
21805;DHT22;11064;47.102;15.452;2022-10-17T13:31:06;18.60;99.90
21805;DHT22;11064;47.102;15.452;2022-10-17T13:33:33;18.60;99.90
21805;DHT22;11064;47.102;15.452;2022-10-17T13:36:02;18.60;99.90
21805;DHT22;11064;47.102;15.452;2022-10-17T13:38:31;18.60;99.90
21805;DHT22;11064;47.102;15.452;2022-10-17T13:40:59;18.60;99.90
21805;DHT22;11064;47.102;15.452;2022-10-17T13:43:25;18.50;99.90
21805;DHT22;11064;47.102;15.452;2022-10-17T13:45:54;18.50;99.90
21805;DHT22;11064;47.102;15.452;2022-10-17T13:48:27;18.50;99.90
21805;DHT22;11064;47.102;15.452;2022-10-17T13:50:55;18.40;99.90
21805;DHT22;11064;47.102;15.452;2022-10-17T13:53:37;18.50;99.90
21805;DHT22;11064;47.102;15.452;2022-10-17T13:56:25;18.40;99.90
21805;DHT22;11064;47.102;15.452;2022-10-17T13:58:53;18.40;99.90
21805;DHT22;11064;47.102;15.452;2022-10-17T14:01:26;18.50;99.90
21805;DHT22;11064;47.102;15.452;2022-10-17T14:03:53;18.50;99.90
21805;DHT22;11064;47.102;15.452;2022-10-17T14:06:27;18.40;99.90
21805;DHT22;11064;47.102;15.452;2022-10-17T14:09:06;18.50;99.90
21805;DHT22;11064;47.102;15.452;2022-10-17T14:11:40;18.30;99.90
21805;DHT22;11064;47.102;15.452;2022-10-17T14:14:22;18.20;99.90
21805;DHT22;11064;47.102;15.452;2022-10-17T14:16:48;18.10;99.90
21805;DHT22;11064;47.102;15.452;2022-10-17T14:19:33;18.10;99.90
21805;DHT22;11064;47.102;15.452;2022-10-17T14:24:45;18.10;99.90
21805;DHT22;11064;47.102;15.452;2022-10-17T14:27:50;18.10;99.90
21805;DHT22;11064;47.102;15.452;2022-10-17T14:33:02;18.10;99.90
21805;DHT22;11064;47.102;15.452;2022-10-17T14:35:30;18.00;99.90
21805;DHT22;11064;47.102;15.452;2022-10-17T14:38:01;17.90;99.90
21805;DHT22;11064;47.102;15.452;2022-10-17T14:40:30;17.90;99.90
21805;DHT22;11064;47.102;15.452;2022-10-17T14:42:59;17.80;99.90
21805;DHT22;11064;47.102;15.452;2022-10-17T14:45:37;17.80;99.90
21805;DHT22;11064;47.102;15.452;2022-10-17T14:48:13;17.70;99.90
21805;DHT22;11064;47.102;15.452;2022-10-17T14:50:40;17.60;99.90
21805;DHT22;11064;47.102;15.452;2022-10-17T14:55:38;17.50;99.90
21805;DHT22;11064;47.102;15.452;2022-10-17T14:58:20;17.40;99.90
21805;DHT22;11064;47.102;15.452;2022-10-17T15:00:47;17.40;99.90
21805;DHT22;11064;47.102;15.452;2022-10-17T15:03:13;17.40;99.90
21805;DHT22;11064;47.102;15.452;2022-10-17T15:05:38;17.30;99.90
21805;DHT22;11064;47.102;15.452;2022-10-17T15:08:12;17.30;99.90
21805;DHT22;11064;47.102;15.452;2022-10-17T15:10:38;17.20;99.90
21805;DHT22;11064;47.102;15.452;2022-10-17T15:13:08;17.10;99.90
21805;DHT22;11064;47.102;15.452;2022-10-17T15:15:36;17.00;99.90
21805;DHT22;11064;47.102;15.452;2022-10-17T15:18:03;16.90;99.90
21805;DHT22;11064;47.102;15.452;2022-10-17T15:20:29;16.80;99.90
21805;DHT22;11064;47.102;15.452;2022-10-17T15:22:57;16.70;99.90
21805;DHT22;11064;47.102;15.452;2022-10-17T15:25:25;16.60;99.90
21805;DHT22;11064;47.102;15.452;2022-10-17T15:27:51;16.50;99.90
21805;DHT22;11064;47.102;15.452;2022-10-17T15:30:30;16.40;99.90
21805;DHT22;11064;47.102;15.452;2022-10-17T15:32:57;16.30;99.90
21805;DHT22;11064;47.102;15.452;2022-10-17T15:35:24;16.30;99.90
21805;DHT22;11064;47.102;15.452;2022-10-17T15:37:50;16.30;99.90
21805;DHT22;11064;47.102;15.452;2022-10-17T15:40:29;16.20;99.90
21805;DHT22;11064;47.102;15.452;2022-10-17T15:42:55;16.10;99.90
21805;DHT22;11064;47.102;15.452;2022-10-17T15:45:22;16.00;99.90
21805;DHT22;11064;47.102;15.452;2022-10-17T15:47:57;16.00;99.90
21805;DHT22;11064;47.102;15.452;2022-10-17T15:50:24;16.00;99.90
21805;DHT22;11064;47.102;15.452;2022-10-17T15:52:50;15.90;99.90
21805;DHT22;11064;47.102;15.452;2022-10-17T15:55:17;15.80;99.90
21805;DHT22;11064;47.102;15.452;2022-10-17T15:57:44;15.70;99.90
21805;DHT22;11064;47.102;15.452;2022-10-17T16:00:17;15.70;99.90
21805;DHT22;11064;47.102;15.452;2022-10-17T16:02:44;15.60;99.90
21805;DHT22;11064;47.102;15.452;2022-10-17T16:05:17;15.50;99.90
21805;DHT22;11064;47.102;15.452;2022-10-17T16:07:44;15.40;99.90
21805;DHT22;11064;47.102;15.452;2022-10-17T16:10:12;15.40;99.90
21805;DHT22;11064;47.102;15.452;2022-10-17T16:12:39;15.30;99.90
21805;DHT22;11064;47.102;15.452;2022-10-17T16:15:14;15.20;99.90
21805;DHT22;11064;47.102;15.452;2022-10-17T16:17:40;15.20;99.90
21805;DHT22;11064;47.102;15.452;2022-10-17T16:20:07;15.20;99.90
21805;DHT22;11064;47.102;15.452;2022-10-17T16:22:34;15.10;99.90
21805;DHT22;11064;47.102;15.452;2022-10-17T16:25:25;15.10;99.90
21805;DHT22;11064;47.102;15.452;2022-10-17T16:27:54;15.00;99.90
21805;DHT22;11064;47.102;15.452;2022-10-17T16:30:21;14.90;99.90
21805;DHT22;11064;47.102;15.452;2022-10-17T16:32:48;14.90;99.90
21805;DHT22;11064;47.102;15.452;2022-10-17T16:35:25;14.80;99.90
21805;DHT22;11064;47.102;15.452;2022-10-17T16:37:52;14.70;99.90
21805;DHT22;11064;47.102;15.452;2022-10-17T16:40:18;14.70;99.90
21805;DHT22;11064;47.102;15.452;2022-10-17T16:42:44;14.70;99.90
21805;DHT22;11064;47.102;15.452;2022-10-17T16:45:19;14.60;99.90
21805;DHT22;11064;47.102;15.452;2022-10-17T16:47:46;14.50;99.90
21805;DHT22;11064;47.102;15.452;2022-10-17T16:50:12;14.50;99.90
21805;DHT22;11064;47.102;15.452;2022-10-17T16:52:37;14.30;99.90
21805;DHT22;11064;47.102;15.452;2022-10-17T16:55:03;14.30;99.90
21805;DHT22;11064;47.102;15.452;2022-10-17T16:57:29;14.20;99.90
21805;DHT22;11064;47.102;15.452;2022-10-17T16:59:55;14.10;99.90
21805;DHT22;11064;47.102;15.452;2022-10-17T17:02:21;14.10;99.90
21805;DHT22;11064;47.102;15.452;2022-10-17T17:04:47;14.10;99.90
21805;DHT22;11064;47.102;15.452;2022-10-17T17:07:13;14.10;99.90
21805;DHT22;11064;47.102;15.452;2022-10-17T17:09:39;14.10;99.90
21805;DHT22;11064;47.102;15.452;2022-10-17T17:12:05;14.10;99.90
21805;DHT22;11064;47.102;15.452;2022-10-17T17:14:31;14.00;99.90
21805;DHT22;11064;47.102;15.452;2022-10-17T17:16:57;14.00;99.90
21805;DHT22;11064;47.102;15.452;2022-10-17T17:19:22;14.00;99.90
21805;DHT22;11064;47.102;15.452;2022-10-17T17:21:48;14.00;99.90
21805;DHT22;11064;47.102;15.452;2022-10-17T17:24:17;14.00;99.90
21805;DHT22;11064;47.102;15.452;2022-10-17T17:26:45;14.00;99.90
21805;DHT22;11064;47.102;15.452;2022-10-17T17:29:14;13.90;99.90
21805;DHT22;11064;47.102;15.452;2022-10-17T17:31:40;13.90;99.90
21805;DHT22;11064;47.102;15.452;2022-10-17T17:34:06;13.90;99.90
21805;DHT22;11064;47.102;15.452;2022-10-17T17:36:35;14.00;99.90
21805;DHT22;11064;47.102;15.452;2022-10-17T17:39:06;13.90;99.90
21805;DHT22;11064;47.102;15.452;2022-10-17T17:41:34;13.80;99.90
21805;DHT22;11064;47.102;15.452;2022-10-17T17:44:00;13.80;99.90
21805;DHT22;11064;47.102;15.452;2022-10-17T17:46:27;13.80;99.90
21805;DHT22;11064;47.102;15.452;2022-10-17T17:48:54;13.70;99.90
21805;DHT22;11064;47.102;15.452;2022-10-17T17:51:24;13.70;99.90
21805;DHT22;11064;47.102;15.452;2022-10-17T17:53:50;13.70;99.90
21805;DHT22;11064;47.102;15.452;2022-10-17T17:56:19;13.70;99.90
21805;DHT22;11064;47.102;15.452;2022-10-17T17:58:47;13.70;99.90
21805;DHT22;11064;47.102;15.452;2022-10-17T18:01:22;13.70;99.90
21805;DHT22;11064;47.102;15.452;2022-10-17T18:03:50;13.70;99.90
21805;DHT22;11064;47.102;15.452;2022-10-17T18:06:17;13.70;99.90
21805;DHT22;11064;47.102;15.452;2022-10-17T18:08:47;13.70;99.90
21805;DHT22;11064;47.102;15.452;2022-10-17T18:11:13;13.70;99.90
21805;DHT22;11064;47.102;15.452;2022-10-17T18:13:39;13.70;99.90
21805;DHT22;11064;47.102;15.452;2022-10-17T18:16:07;13.70;99.90
21805;DHT22;11064;47.102;15.452;2022-10-17T18:18:43;13.70;99.90
21805;DHT22;11064;47.102;15.452;2022-10-17T18:21:12;13.70;99.90
21805;DHT22;11064;47.102;15.452;2022-10-17T18:23:41;13.70;99.90
21805;DHT22;11064;47.102;15.452;2022-10-17T18:26:07;13.70;99.90
21805;DHT22;11064;47.102;15.452;2022-10-17T18:28:35;13.60;99.90
21805;DHT22;11064;47.102;15.452;2022-10-17T18:31:11;13.50;99.90
21805;DHT22;11064;47.102;15.452;2022-10-17T18:33:38;13.50;99.90
21805;DHT22;11064;47.102;15.452;2022-10-17T18:36:07;13.50;99.90
21805;DHT22;11064;47.102;15.452;2022-10-17T18:38:34;13.50;99.90
21805;DHT22;11064;47.102;15.452;2022-10-17T18:41:02;13.50;99.90
21805;DHT22;11064;47.102;15.452;2022-10-17T18:43:31;13.50;99.90
21805;DHT22;11064;47.102;15.452;2022-10-17T18:46:05;13.50;99.90
21805;DHT22;11064;47.102;15.452;2022-10-17T18:48:32;13.40;99.90
21805;DHT22;11064;47.102;15.452;2022-10-17T18:50:59;13.40;99.90
21805;DHT22;11064;47.102;15.452;2022-10-17T18:53:26;13.40;99.90
21805;DHT22;11064;47.102;15.452;2022-10-17T18:55:52;13.30;99.90
21805;DHT22;11064;47.102;15.452;2022-10-17T18:58:19;13.40;99.90
21805;DHT22;11064;47.102;15.452;2022-10-17T19:00:50;13.40;99.90
21805;DHT22;11064;47.102;15.452;2022-10-17T19:03:17;13.40;99.90
21805;DHT22;11064;47.102;15.452;2022-10-17T19:05:43;13.40;99.90
21805;DHT22;11064;47.102;15.452;2022-10-17T19:08:14;13.40;99.90
21805;DHT22;11064;47.102;15.452;2022-10-17T19:10:41;13.30;99.90
21805;DHT22;11064;47.102;15.452;2022-10-17T19:13:10;13.30;99.90
21805;DHT22;11064;47.102;15.452;2022-10-17T19:15:37;13.40;99.90
21805;DHT22;11064;47.102;15.452;2022-10-17T19:18:04;13.30;99.90
21805;DHT22;11064;47.102;15.452;2022-10-17T19:20:30;13.30;99.90
21805;DHT22;11064;47.102;15.452;2022-10-17T19:22:56;13.30;99.90
21805;DHT22;11064;47.102;15.452;2022-10-17T19:25:22;13.30;99.90
21805;DHT22;11064;47.102;15.452;2022-10-17T19:27:48;13.30;99.90
21805;DHT22;11064;47.102;15.452;2022-10-17T19:30:13;13.20;99.90
21805;DHT22;11064;47.102;15.452;2022-10-17T19:32:39;13.10;99.90
21805;DHT22;11064;47.102;15.452;2022-10-17T19:35:06;13.10;99.90
21805;DHT22;11064;47.102;15.452;2022-10-17T19:37:31;13.10;99.90
21805;DHT22;11064;47.102;15.452;2022-10-17T19:39:58;13.10;99.90
21805;DHT22;11064;47.102;15.452;2022-10-17T19:42:25;13.00;99.90
21805;DHT22;11064;47.102;15.452;2022-10-17T19:44:50;13.00;99.90
21805;DHT22;11064;47.102;15.452;2022-10-17T19:47:16;13.00;99.90
21805;DHT22;11064;47.102;15.452;2022-10-17T19:49:42;12.90;99.90
21805;DHT22;11064;47.102;15.452;2022-10-17T19:52:08;12.90;99.90
21805;DHT22;11064;47.102;15.452;2022-10-17T19:54:34;12.90;99.90
21805;DHT22;11064;47.102;15.452;2022-10-17T19:57:00;13.00;99.90
21805;DHT22;11064;47.102;15.452;2022-10-17T19:59:26;13.00;99.90
21805;DHT22;11064;47.102;15.452;2022-10-17T20:01:52;12.90;99.90
21805;DHT22;11064;47.102;15.452;2022-10-17T20:04:19;13.00;99.90
21805;DHT22;11064;47.102;15.452;2022-10-17T20:06:46;13.10;99.90
21805;DHT22;11064;47.102;15.452;2022-10-17T20:09:12;13.10;99.90
21805;DHT22;11064;47.102;15.452;2022-10-17T20:11:38;13.10;99.90
21805;DHT22;11064;47.102;15.452;2022-10-17T20:14:04;13.10;99.90
21805;DHT22;11064;47.102;15.452;2022-10-17T20:16:32;13.10;99.90
21805;DHT22;11064;47.102;15.452;2022-10-17T20:19:10;13.10;99.90
21805;DHT22;11064;47.102;15.452;2022-10-17T20:21:36;13.10;99.90
21805;DHT22;11064;47.102;15.452;2022-10-17T20:24:07;13.10;99.90
21805;DHT22;11064;47.102;15.452;2022-10-17T20:26:34;13.10;99.90
21805;DHT22;11064;47.102;15.452;2022-10-17T20:29:04;13.00;99.90
21805;DHT22;11064;47.102;15.452;2022-10-17T20:31:33;13.10;99.90
21805;DHT22;11064;47.102;15.452;2022-10-17T20:33:59;13.10;99.90
21805;DHT22;11064;47.102;15.452;2022-10-17T20:36:26;13.00;99.90
21805;DHT22;11064;47.102;15.452;2022-10-17T20:38:53;13.00;99.90
21805;DHT22;11064;47.102;15.452;2022-10-17T20:41:20;13.10;99.90
21805;DHT22;11064;47.102;15.452;2022-10-17T20:43:48;13.00;99.90
21805;DHT22;11064;47.102;15.452;2022-10-17T20:46:15;13.10;99.90
21805;DHT22;11064;47.102;15.452;2022-10-17T20:48:40;13.10;99.90
21805;DHT22;11064;47.102;15.452;2022-10-17T20:51:10;13.20;99.90
21805;DHT22;11064;47.102;15.452;2022-10-17T20:53:36;13.10;99.90
21805;DHT22;11064;47.102;15.452;2022-10-17T20:56:08;13.20;99.90
21805;DHT22;11064;47.102;15.452;2022-10-17T20:58:36;13.40;99.90
21805;DHT22;11064;47.102;15.452;2022-10-17T21:01:09;13.30;99.90
21805;DHT22;11064;47.102;15.452;2022-10-17T21:03:37;13.30;99.90
21805;DHT22;11064;47.102;15.452;2022-10-17T21:06:03;13.30;99.90